Time;durP1;ratioP1;P1;durP2;ratioP2;P2;SDS_P1;SDS_P2;PMS_P1;PMS_P2;Temp;Humidity;BMP_temperature;BMP_pressure;BME280_temperature;BME280_humidity;BME280_pressure;Samples;Min_cycle;Max_cycle;Signal;HPM_P1;HPM_P2
2023/08/31 00:02:06;;;;;;;;;;;;;;;;;;4914827;28;125877;-82
2023/08/31 00:04:33;;;;;;;;;;;;;;;;;;4910198;28;121169;-81
2023/08/31 00:06:59;;;;;;;;;;;;;;;;;;4889189;28;117052;-81
2023/08/31 00:09:26;;;;;;;;;;;;;;;;;;4892248;28;110595;-81
2023/08/31 00:11:52;;;;;;;;;;;;;;;;;;4880908;28;122203;-81
2023/08/31 00:14:19;;;;;;;;;;;;;;;;;;4880071;28;103607;-81
2023/08/31 00:16:49;;;;;;;;;;;;;;;;;;4883918;28;128405;-81
2023/08/31 00:19:16;;;;;;;;;;;;;;;;;;4893056;28;98669;-81
2023/08/31 00:21:42;;;;;;;;;;;;;;;;;;4888395;28;127687;-82
2023/08/31 00:24:10;;;;;;;;;;;;;;;;;;4882150;28;107979;-82
2023/08/31 00:26:39;;;;;;;;;;;;;;;;;;4882416;28;125939;-81
2023/08/31 00:29:06;;;;;;;;;;;;;;;;;;4911982;28;128664;-81
2023/08/31 00:31:33;;;;;;;;;;;;;;;;;;4909211;28;119562;-82
2023/08/31 00:34:04;;;;;;;;;;;;;;;;;;4879684;28;125835;-82
2023/08/31 00:36:31;;;;;;;;;;;;;;;;;;4883904;28;130780;-82
2023/08/31 00:38:58;;;;;;;;;;;;;;;;;;4888667;28;98599;-82
2023/08/31 00:41:25;;;;;;;;;;;;;;;;;;4879549;28;127839;-82
2023/08/31 00:43:51;;;;;;;;;;;;;;;;;;4883917;28;99942;-82
2023/08/31 00:46:18;;;;;;;;;;;;;;;;;;4906554;28;98574;-82
2023/08/31 00:48:45;;;;;;;;;;;;;;;;;;4880001;28;100901;-82
2023/08/31 00:51:11;;;;;;;;;;;;;;;;;;4893714;28;117760;-82
2023/08/31 00:53:37;;;;;;;;;;;;;;;;;;4912350;28;125623;-82
2023/08/31 00:56:05;;;;;;;;;;;;;;;;;;4888148;28;101511;-82
2023/08/31 00:58:31;;;;;;;;;;;;;;;;;;4894405;28;97750;-82
2023/08/31 01:00:57;;;;;;;;;;;;;;;;;;4906996;28;128481;-82
2023/08/31 01:03:24;;;;;;;;;;;;;;;;;;4903828;28;107972;-82
2023/08/31 01:05:50;;;;;;;;;;;;;;;;;;4888114;28;123643;-82
2023/08/31 01:08:18;;;;;;;;;;;;;;;;;;4909353;28;99096;-82
2023/08/31 01:10:45;;;;;;;;;;;;;;;;;;4910644;28;120337;-82
2023/08/31 01:13:13;;;;;;;;;;;;;;;;;;4892221;28;127996;-82
2023/08/31 01:15:40;;;;;;;;;;;;;;;;;;4875952;28;121385;-82
2023/08/31 01:18:06;;;;;;;;;;;;;;;;;;4894879;28;110908;-82
2023/08/31 01:20:33;;;;;;;;;;;;;;;;;;4904373;28;128368;-82
2023/08/31 01:22:59;;;;;;;;;;;;;;;;;;4877650;28;100369;-83
2023/08/31 01:25:25;;;;;;;;;;;;;;;;;;4905917;28;121971;-82
2023/08/31 01:27:52;;;;;;;;;;;;;;;;;;4909098;28;98670;-83
2023/08/31 01:30:18;;;;;;;;;;;;;;;;;;4894452;28;121122;-83
2023/08/31 01:32:45;;;;;;;;;;;;;;;;;;4877862;28;119058;-83
2023/08/31 01:35:11;;;;;;;;;;;;;;;;;;4912380;28;98606;-82
2023/08/31 01:37:38;;;;;;;;;;;;;;;;;;4892839;28;121663;-83
2023/08/31 01:40:06;;;;;;;;;;;;;;;;;;4895441;28;100849;-82
2023/08/31 01:42:32;;;;;;;;;;;;;;;;;;4897710;28;105778;-83
2023/08/31 01:44:59;;;;;;;;;;;;;;;;;;4895832;28;121990;-83
2023/08/31 01:47:25;;;;;;;;;;;;;;;;;;4893676;28;122137;-83
2023/08/31 01:49:52;;;;;;;;;;;;;;;;;;4919298;28;112338;-83
2023/08/31 01:52:19;;;;;;;;;;;;;;;;;;4899699;28;98516;-82
2023/08/31 01:54:45;;;;;;;;;;;;;;;;;;4874710;28;131166;-83
2023/08/31 01:57:13;;;;;;;;;;;;;;;;;;4875828;28;98644;-83
2023/08/31 01:59:58;;;;;;;;;;;;;;;;;;4898562;28;98523;-83
2023/08/31 02:02:25;;;;;;;;;;;;;;;;;;4890353;28;108668;-82
2023/08/31 02:04:51;;;;;;;;;;;;;;;;;;4893823;28;98764;-83
2023/08/31 02:07:18;;;;;;;;;;;;;;;;;;4916438;28;128456;-83
2023/08/31 02:09:44;;;;;;;;;;;;;;;;;;4892844;28;113991;-83
2023/08/31 02:12:11;;;;;;;;;;;;;;;;;;4907113;28;123673;-83
2023/08/31 02:14:38;;;;;;;;;;;;;;;;;;4889551;28;118921;-83
2023/08/31 02:17:04;;;;;;;;;;;;;;;;;;4889139;28;122260;-82
2023/08/31 02:19:31;;;;;;;;;;;;;;;;;;4887142;28;126653;-82
2023/08/31 02:21:57;;;;;;;;;;;;;;;;;;4913481;28;100655;-82
2023/08/31 02:24:24;;;;;;;;;;;;;;;;;;4879703;28;99195;-82
2023/08/31 02:26:51;;;;;;;;;;;;;;;;;;4876897;28;99906;-82
2023/08/31 02:29:17;;;;;;;;;;;;;;;;;;4910251;28;127466;-84
2023/08/31 02:31:45;;;;;;;;;;;;;;;;;;4908902;28;122326;-85
2023/08/31 02:34:11;;;;;;;;;;;;;;;;;;4913046;28;128451;-84
2023/08/31 02:36:37;;;;;;;;;;;;;;;;;;4890130;28;121960;-84
2023/08/31 02:39:04;;;;;;;;;;;;;;;;;;4893902;28;110844;-81
2023/08/31 02:41:30;;;;;;;;;;;;;;;;;;4907101;28;128674;-80
2023/08/31 02:43:57;;;;;;;;;;;;;;;;;;4888637;28;98475;-82
2023/08/31 02:46:24;;;;;;;;;;;;;;;;;;4911606;28;98519;-81
2023/08/31 02:48:51;;;;;;;;;;;;;;;;;;4878390;28;128930;-82
2023/08/31 02:51:17;;;;;;;;;;;;;;;;;;4902805;28;119079;-83
2023/08/31 02:53:43;;;;;;;;;;;;;;;;;;4908618;28;100220;-83
2023/08/31 02:56:10;;;;;;;;;;;;;;;;;;4876688;28;110739;-83
2023/08/31 02:58:36;;;;;;;;;;;;;;;;;;4889469;28;127999;-83
2023/08/31 03:01:05;;;;;;;;;;;;;;;;;;4895016;28;100641;-84
2023/08/31 03:03:31;;;;;;;;;;;;;;;;;;4872909;28;120705;-84
2023/08/31 03:05:59;;;;;;;;;;;;;;;;;;4891389;28;99501;-84
2023/08/31 03:08:25;;;;;;;;;;;;;;;;;;4904468;28;127907;-83
2023/08/31 03:10:53;;;;;;;;;;;;;;;;;;4897049;28;98360;-84
2023/08/31 03:13:19;;;;;;;;;;;;;;;;;;4876920;28;122032;-83
2023/08/31 03:15:45;;;;;;;;;;;;;;;;;;4912125;28;98569;-83
2023/08/31 03:18:12;;;;;;;;;;;;;;;;;;4884347;28;123275;-84
2023/08/31 03:20:38;;;;;;;;;;;;;;;;;;4900538;28;129146;-83
2023/08/31 03:23:04;;;;;;;;;;;;;;;;;;4879082;28;114888;-83
2023/08/31 03:25:31;;;;;;;;;;;;;;;;;;4883333;28;126154;-82
2023/08/31 03:27:58;;;;;;;;;;;;;;;;;;4906347;28;127676;-83
2023/08/31 03:30:24;;;;;;;;;;;;;;;;;;4891802;28;98703;-82
2023/08/31 03:32:50;;;;;;;;;;;;;;;;;;4908385;28;126184;-82
2023/08/31 03:35:17;;;;;;;;;;;;;;;;;;4909545;28;98899;-81
2023/08/31 03:37:43;;;;;;;;;;;;;;;;;;4892238;28;98974;-84
2023/08/31 03:40:10;;;;;;;;;;;;;;;;;;4872665;28;125535;-83
2023/08/31 03:42:36;;;;;;;;;;;;;;;;;;4892373;28;99913;-83
2023/08/31 03:45:04;;;;;;;;;;;;;;;;;;4912086;28;100076;-84
2023/08/31 03:47:31;;;;;;;;;;;;;;;;;;4901141;28;127846;-84
2023/08/31 03:49:57;;;;;;;;;;;;;;;;;;4908577;28;98580;-84
2023/08/31 03:52:24;;;;;;;;;;;;;;;;;;4892236;28;119205;-83
2023/08/31 03:54:50;;;;;;;;;;;;;;;;;;4883278;28;98531;-83
2023/08/31 03:57:17;;;;;;;;;;;;;;;;;;4877357;28;111672;-83
2023/08/31 03:59:44;;;;;;;;;;;;;;;;;;4878910;28;98725;-83
2023/08/31 04:02:10;;;;;;;;;;;;;;;;;;4882079;28;122427;-83
2023/08/31 04:04:36;;;;;;;;;;;;;;;;;;4885868;28;101213;-83
2023/08/31 04:07:03;;;;;;;;;;;;;;;;;;4906272;28;128500;-84
2023/08/31 04:09:31;;;;;;;;;;;;;;;;;;4888929;28;98866;-84
2023/08/31 04:11:58;;;;;;;;;;;;;;;;;;4909747;28;99347;-83
2023/08/31 04:14:24;;;;;;;;;;;;;;;;;;4885561;28;103402;-83
2023/08/31 04:16:51;;;;;;;;;;;;;;;;;;4881369;28;122438;-83
2023/08/31 04:19:17;;;;;;;;;;;;;;;;;;4908870;28;125640;-82
2023/08/31 04:21:44;;;;;;;;;;;;;;;;;;4910861;28;105228;-84
2023/08/31 04:24:10;;;;;;;;;;;;;;;;;;4885313;28;124648;-84
2023/08/31 04:26:36;;;;;;;;;;;;;;;;;;4909677;28;129332;-83
2023/08/31 04:29:05;;;;;;;;;;;;;;;;;;4866825;28;123081;-84
2023/08/31 04:31:31;;;;;;;;;;;;;;;;;;4905905;28;125424;-84
2023/08/31 04:33:58;;;;;;;;;;;;;;;;;;4894998;28;100606;-84
2023/08/31 04:36:25;;;;;;;;;;;;;;;;;;4911690;28;120887;-84
2023/08/31 04:38:52;;;;;;;;;;;;;;;;;;4915276;28;118793;-84
2023/08/31 04:41:18;;;;;;;;;;;;;;;;;;4893588;28;111697;-84
2023/08/31 04:43:47;;;;;;;;;;;;;;;;;;4891589;28;113748;-84
2023/08/31 04:46:14;;;;;;;;;;;;;;;;;;4896838;28;127343;-84
2023/08/31 04:48:40;;;;;;;;;;;;;;;;;;4912720;28;122927;-83
2023/08/31 04:51:07;;;;;;;;;;;;;;;;;;4913077;28;128739;-83
2023/08/31 04:53:33;;;;;;;;;;;;;;;;;;4897028;28;114512;-84
2023/08/31 04:56:00;;;;;;;;;;;;;;;;;;4889856;28;123051;-84
2023/08/31 04:58:26;;;;;;;;;;;;;;;;;;4901724;28;126660;-83
2023/08/31 05:00:52;;;;;;;;;;;;;;;;;;4895591;28;120528;-82
2023/08/31 05:03:19;;;;;;;;;;;;;;;;;;4912572;28;122511;-83
2023/08/31 05:05:45;;;;;;;;;;;;;;;;;;4899236;28;111848;-83
2023/08/31 05:08:11;;;;;;;;;;;;;;;;;;4892509;28;121257;-84
2023/08/31 05:10:39;;;;;;;;;;;;;;;;;;4878552;28;126412;-84
2023/08/31 05:13:05;;;;;;;;;;;;;;;;;;4908731;28;127505;-85
2023/08/31 05:15:33;;;;;;;;;;;;;;;;;;4911798;28;118096;-84
2023/08/31 05:18:00;;;;;;;;;;;;;;;;;;4901260;28;109535;-85
2023/08/31 05:20:27;;;;;;;;;;;;;;;;;;4898185;28;117960;-85
2023/08/31 05:22:53;;;;;;;;;;;;;;;;;;4915898;28;121048;-85
2023/08/31 05:25:20;;;;;;;;;;;;;;;;;;4901192;28;126994;-86
2023/08/31 05:27:46;;;;;;;;;;;;;;;;;;4898731;28;98637;-85
2023/08/31 05:30:13;;;;;;;;;;;;;;;;;;4877109;28;129311;-85
2023/08/31 05:32:39;;;;;;;;;;;;;;;;;;4897611;28;127492;-85
2023/08/31 05:35:06;;;;;;;;;;;;;;;;;;4900674;28;99015;-85
2023/08/31 05:37:33;;;;;;;;;;;;;;;;;;4899493;28;123697;-84
2023/08/31 05:39:59;;;;;;;;;;;;;;;;;;4917084;28;116579;-84
2023/08/31 05:42:26;;;;;;;;;;;;;;;;;;4924506;28;121330;-84
2023/08/31 05:44:53;;;;;;;;;;;;;;;;;;4884060;28;124532;-85
2023/08/31 05:47:19;;;;;;;;;;;;;;;;;;4916934;28;98619;-85
2023/08/31 05:49:45;;;;;;;;;;;;;;;;;;4895910;28;126735;-84
2023/08/31 05:52:12;;;;;;;;;;;;;;;;;;4891398;28;100251;-85
2023/08/31 05:54:38;;;;;;;;;;;;;;;;;;4908011;28;122881;-85
2023/08/31 05:57:05;;;;;;;;;;;;;;;;;;4886729;28;97835;-85
2023/08/31 05:59:32;;;;;;;;;;;;;;;;;;4882640;28;101600;-85
2023/08/31 06:01:58;;;;;;;;;;;;;;;;;;4898323;28;98572;-85
2023/08/31 06:04:24;;;;;;;;;;;;;;;;;;4890740;28;126818;-85
2023/08/31 06:06:53;;;;;;;;;;;;;;;;;;4896257;28;127358;-85
2023/08/31 06:09:20;;;;;;;;;;;;;;;;;;4903056;28;111118;-84
2023/08/31 06:11:46;;;;;;;;;;;;;;;;;;4908971;28;129219;-84
2023/08/31 06:14:34;;;;;;;;;;;;;;;;;;4917532;23;120973;-93
2023/08/31 06:18:09;;;;;;;;;;;;;;;;;;4894275;28;98542;-93
2023/08/31 06:24:39;;;;;;;;;;;;;;;;;;;;;
2023/08/31 06:31:31;;;;;;;;;;;;;;;;;;4739388;29;101644;-92
2023/08/31 06:34:45;;;;;;;;;;;;;;;;;;4756951;29;120724;-92
2023/08/31 06:38:01;;;;;;;;;;;;;;;;;;4753533;29;100623;-92
2023/08/31 06:41:19;;;;;;;;;;;;;;;;;;;;;
2023/08/31 06:44:34;;;;;;;;;;;;;;;;;;4756897;29;126612;-91
2023/08/31 06:48:13;;;;;;;;;;;;;;;;;;4685625;29;101415;-92
2023/08/31 06:57:33;;;;;;;;;;;;;;;;;;4822754;29;101685;-89
2023/08/31 07:07:36;;;;;;;;;;;;;;;;;;4796775;29;99659;-91
2023/08/31 07:11:21;;;;;;;;;;;;;;;;;;4768135;29;126720;-91
2023/08/31 07:14:34;;;;;;;;;;;;;;;;;;4775059;29;129179;-91
2023/08/31 07:18:05;;;;;;;;;;;;;;;;;;4734133;29;98584;-91
2023/08/31 07:21:05;;;;;;;;;;;;;;;;;;4710147;29;99925;-91
2023/08/31 07:24:13;;;;;;;;;;;;;;;;;;;;;
2023/08/31 07:27:38;;;;;;;;;;;;;;;;;;4701869;29;99585;-92
2023/08/31 07:36:42;;;;;;;;;;;;;;;;;;4794137;29;98577;-92
2023/08/31 07:39:28;;;;;;;;;;;;;;;;;;4797592;29;98779;-92
2023/08/31 07:42:27;;;;;;;;;;;;;;;;;;4866528;28;98238;-92
2023/08/31 07:45:11;;;;;;;;;;;;;;;;;;4861314;28;99512;-92
2023/08/31 07:48:07;;;;;;;;;;;;;;;;;;;;;
2023/08/31 08:01:23;;;;;;;;;;;;;;;;;;4819981;29;99450;-91
2023/08/31 08:04:24;;;;;;;;;;;;;;;;;;;;;
2023/08/31 08:07:05;;;;;;;;;;;;;;;;;;4791076;29;98156;-91
2023/08/31 08:09:39;;;;;;;;;;;;;;;;;;4793506;29;98579;-91
2023/08/31 08:12:23;;;;;;;;;;;;;;;;;;4786578;29;98077;-91
2023/08/31 08:15:12;;;;;;;;;;;;;;;;;;4804574;29;98506;-92
2023/08/31 08:17:48;;;;;;;;;;;;;;;;;;4799933;29;100967;-91
2023/08/31 08:20:33;;;;;;;;;;;;;;;;;;4801284;29;101619;-91
2023/08/31 08:23:25;;;;;;;;;;;;;;;;;;4803199;29;98710;-91
2023/08/31 08:26:19;;;;;;;;;;;;;;;;;;4821420;29;100038;-91
2023/08/31 08:29:22;;;;;;;;;;;;;;;;;;4832913;29;100679;-91
2023/08/31 08:32:29;;;;;;;;;;;;;;;;;;;;;
2023/08/31 08:38:47;;;;;;;;;;;;;;;;;;;;;
2023/08/31 08:44:59;;;;;;;;;;;;;;;;;;4785939;29;100326;-93
2023/08/31 08:47:39;;;;;;;;;;;;;;;;;;4783154;29;98747;-92
2023/08/31 08:50:31;;;;;;;;;;;;;;;;;;4783710;29;99508;-92
2023/08/31 08:53:14;;;;;;;;;;;;;;;;;;4789776;29;101352;-92
2023/08/31 08:56:09;;;;;;;;;;;;;;;;;;4802288;29;97790;-92
2023/08/31 08:58:46;;;;;;;;;;;;;;;;;;4815471;29;101735;-92
2023/08/31 09:01:37;;;;;;;;;;;;;;;;;;4785424;29;98017;-92
2023/08/31 09:04:31;;;;;;;;;;;;;;;;;;4742349;29;100112;-92
2023/08/31 09:08:04;;;;;;;;;;;;;;;;;;4781898;29;99710;-92
2023/08/31 09:11:02;;;;;;;;;;;;;;;;;;4780417;29;97807;-92
2023/08/31 09:13:42;;;;;;;;;;;;;;;;;;4823498;29;99179;-85
2023/08/31 09:16:08;;;;;;;;;;;;;;;;;;4848225;28;100904;-84
2023/08/31 09:18:35;;;;;;;;;;;;;;;;;;4837853;29;112704;-84
2023/08/31 09:21:02;;;;;;;;;;;;;;;;;;4827235;29;127643;-84
2023/08/31 09:23:28;;;;;;;;;;;;;;;;;;4832599;29;99063;-84
2023/08/31 09:25:55;;;;;;;;;;;;;;;;;;4832672;29;100333;-84
2023/08/31 09:28:21;;;;;;;;;;;;;;;;;;4826326;29;127560;-84
2023/08/31 09:30:48;;;;;;;;;;;;;;;;;;4855804;29;107724;-85
2023/08/31 09:33:16;;;;;;;;;;;;;;;;;;4848512;29;125673;-84
2023/08/31 09:35:42;;;;;;;;;;;;;;;;;;4828714;29;127790;-84
2023/08/31 09:38:09;;;;;;;;;;;;;;;;;;4846872;29;119246;-84
2023/08/31 09:40:36;;;;;;;;;;;;;;;;;;4834570;29;129018;-84
2023/08/31 09:43:03;;;;;;;;;;;;;;;;;;4829601;29;99421;-85
2023/08/31 09:45:30;;;;;;;;;;;;;;;;;;4841606;29;100073;-85
2023/08/31 09:48:10;;;;;;;;;;;;;;;;;;4848013;29;108788;-85
2023/08/31 09:50:37;;;;;;;;;;;;;;;;;;4827148;29;121671;-85
2023/08/31 09:53:03;;;;;;;;;;;;;;;;;;4827987;29;100314;-85
2023/08/31 09:55:30;;;;;;;;;;;;;;;;;;4816605;29;112316;-85
2023/08/31 09:57:56;;;;;;;;;;;;;;;;;;4845040;29;114754;-85
2023/08/31 10:00:38;;;;;;;;;;;;;;;;;;4840875;29;105297;-85
2023/08/31 10:03:05;;;;;;;;;;;;;;;;;;4831284;29;121910;-86
2023/08/31 10:05:32;;;;;;;;;;;;;;;;;;4829859;29;100067;-87
2023/08/31 10:07:59;;;;;;;;;;;;;;;;;;4831142;29;114023;-87
2023/08/31 10:10:25;;;;;;;;;;;;;;;;;;4849153;29;122454;-87
2023/08/31 10:12:52;;;;;;;;;;;;;;;;;;4827113;29;117849;-86
2023/08/31 10:15:19;;;;;;;;;;;;;;;;;;4840800;29;127484;-85
2023/08/31 10:17:45;;;;;;;;;;;;;;;;;;4831068;29;122722;-84
2023/08/31 10:20:11;;;;;;;;;;;;;;;;;;4830557;29;127139;-83
2023/08/31 10:22:38;;;;;;;;;;;;;;;;;;4848060;29;112676;-86
2023/08/31 10:25:05;;;;;;;;;;;;;;;;;;4845680;29;100279;-87
2023/08/31 10:27:32;;;;;;;;;;;;;;;;;;4816487;29;112363;-85
2023/08/31 10:29:58;;;;;;;;;;;;;;;;;;4846538;29;120986;-86
2023/08/31 10:32:25;;;;;;;;;;;;;;;;;;4844224;29;126720;-83
2023/08/31 10:34:51;;;;;;;;;;;;;;;;;;4848112;29;128719;-86
2023/08/31 10:37:18;;;;;;;;;;;;;;;;;;4854330;29;110337;-86
2023/08/31 10:39:44;;;;;;;;;;;;;;;;;;4843402;29;100569;-85
2023/08/31 10:42:11;;;;;;;;;;;;;;;;;;4820411;29;129303;-84
2023/08/31 10:44:37;;;;;;;;;;;;;;;;;;4823664;29;108676;-85
2023/08/31 10:47:04;;;;;;;;;;;;;;;;;;4841968;29;127525;-87
2023/08/31 10:49:32;;;;;;;;;;;;;;;;;;4825082;29;97833;-85
2023/08/31 10:51:59;;;;;;;;;;;;;;;;;;4823087;29;112270;-86
2023/08/31 10:54:25;;;;;;;;;;;;;;;;;;4809020;29;128296;-83
2023/08/31 10:56:53;;;;;;;;;;;;;;;;;;4842583;29;98740;-87
2023/08/31 10:59:20;;;;;;;;;;;;;;;;;;4820546;29;101426;-83
2023/08/31 11:01:46;;;;;;;;;;;;;;;;;;4838512;29;128667;-85
2023/08/31 11:04:12;;;;;;;;;;;;;;;;;;4834642;29;105136;-85
2023/08/31 11:06:39;;;;;;;;;;;;;;;;;;4827694;29;128064;-85
2023/08/31 11:09:05;;;;;;;;;;;;;;;;;;4842491;29;98482;-86
2023/08/31 11:11:32;;;;;;;;;;;;;;;;;;4824337;29;124111;-87
2023/08/31 11:13:59;;;;;;;;;;;;;;;;;;4828580;29;99817;-87
2023/08/31 11:16:25;;;;;;;;;;;;;;;;;;4814727;29;121030;-85
2023/08/31 11:18:52;;;;;;;;;;;;;;;;;;4841218;29;99941;-84
2023/08/31 11:21:19;;;;;;;;;;;;;;;;;;4820937;29;131058;-86
2023/08/31 11:23:46;;;;;;;;;;;;;;;;;;4821872;29;98658;-85
2023/08/31 11:26:12;;;;;;;;;;;;;;;;;;4841565;29;98957;-86
2023/08/31 11:28:39;;;;;;;;;;;;;;;;;;4840061;29;127631;-84
2023/08/31 11:31:05;;;;;;;;;;;;;;;;;;4841923;29;120365;-86
2023/08/31 11:33:33;;;;;;;;;;;;;;;;;;4838257;29;124953;-87
2023/08/31 11:35:59;;;;;;;;;;;;;;;;;;4814341;29;117588;-86
2023/08/31 11:38:26;;;;;;;;;;;;;;;;;;4822356;29;113100;-86
2023/08/31 11:40:52;;;;;;;;;;;;;;;;;;4837948;29;129192;-87
2023/08/31 11:43:19;;;;;;;;;;;;;;;;;;4820168;29;105940;-87
2023/08/31 11:45:46;;;;;;;;;;;;;;;;;;4839481;29;122537;-86
2023/08/31 11:48:12;;;;;;;;;;;;;;;;;;4840373;29;98872;-87
2023/08/31 11:50:40;;;;;;;;;;;;;;;;;;4826050;29;98516;-87
2023/08/31 11:53:06;;;;;;;;;;;;;;;;;;4835806;29;127533;-86
2023/08/31 11:55:33;;;;;;;;;;;;;;;;;;4821085;29;121196;-86
2023/08/31 11:57:59;;;;;;;;;;;;;;;;;;4823943;29;103121;-86
2023/08/31 12:00:26;;;;;;;;;;;;;;;;;;4820312;29;128073;-87
2023/08/31 12:02:52;;;;;;;;;;;;;;;;;;4815702;29;116095;-87
2023/08/31 12:05:18;;;;;;;;;;;;;;;;;;4841943;29;126055;-86
2023/08/31 12:07:45;;;;;;;;;;;;;;;;;;4820677;29;100554;-89
2023/08/31 12:10:11;;;;;;;;;;;;;;;;;;4826734;29;121611;-86
2023/08/31 12:12:37;;;;;;;;;;;;;;;;;;4840904;29;117606;-87
2023/08/31 12:15:04;;;;;;;;;;;;;;;;;;4819366;29;98532;-86
2023/08/31 12:17:31;;;;;;;;;;;;;;;;;;4836409;29;98486;-86
2023/08/31 12:19:57;;;;;;;;;;;;;;;;;;4840338;29;128761;-86
2023/08/31 12:22:24;;;;;;;;;;;;;;;;;;4821742;29;122337;-86
2023/08/31 12:24:50;;;;;;;;;;;;;;;;;;4825095;29;127682;-87
2023/08/31 12:27:17;;;;;;;;;;;;;;;;;;4813257;29;122031;-88
2023/08/31 12:29:43;;;;;;;;;;;;;;;;;;4840039;29;103979;-86
2023/08/31 12:32:10;;;;;;;;;;;;;;;;;;4848972;29;119212;-86
2023/08/31 12:34:36;;;;;;;;;;;;;;;;;;4845978;29;121018;-86
2023/08/31 12:37:04;;;;;;;;;;;;;;;;;;4832535;29;98683;-87
2023/08/31 12:39:32;;;;;;;;;;;;;;;;;;4839351;29;131441;-86
2023/08/31 12:41:59;;;;;;;;;;;;;;;;;;4857414;29;123610;-87
2023/08/31 12:44:38;;;;;;;;;;;;;;;;;;4844958;29;99065;-86
2023/08/31 12:47:04;;;;;;;;;;;;;;;;;;4826508;29;127967;-87
2023/08/31 12:49:31;;;;;;;;;;;;;;;;;;4821196;29;97785;-86
2023/08/31 12:51:57;;;;;;;;;;;;;;;;;;4841773;29;97887;-86
2023/08/31 12:54:23;;;;;;;;;;;;;;;;;;4829843;29;106246;-87
2023/08/31 12:56:50;;;;;;;;;;;;;;;;;;4826811;29;98966;-85
2023/08/31 12:59:16;;;;;;;;;;;;;;;;;;4824671;29;100011;-86
2023/08/31 13:01:43;;;;;;;;;;;;;;;;;;4829550;29;112785;-87
2023/08/31 13:04:09;;;;;;;;;;;;;;;;;;4830095;29;101530;-87
2023/08/31 13:06:36;;;;;;;;;;;;;;;;;;4847351;29;98418;-86
2023/08/31 13:09:05;;;;;;;;;;;;;;;;;;4815499;29;121383;-86
2023/08/31 13:11:31;;;;;;;;;;;;;;;;;;4845596;29;126717;-87
2023/08/31 13:13:58;;;;;;;;;;;;;;;;;;4839594;29;112206;-87
2023/08/31 13:16:24;;;;;;;;;;;;;;;;;;4841071;29;122553;-86
2023/08/31 13:18:51;;;;;;;;;;;;;;;;;;4834017;29;128724;-86
2023/08/31 13:21:17;;;;;;;;;;;;;;;;;;4827016;29;105811;-86
2023/08/31 13:23:44;;;;;;;;;;;;;;;;;;4840456;29;129895;-86
2023/08/31 13:26:11;;;;;;;;;;;;;;;;;;4824939;29;127591;-86
2023/08/31 13:28:38;;;;;;;;;;;;;;;;;;4814435;29;122384;-86
2023/08/31 13:31:04;;;;;;;;;;;;;;;;;;4825451;29;98384;-86
2023/08/31 13:33:31;;;;;;;;;;;;;;;;;;4826419;29;129989;-87
2023/08/31 13:36:00;;;;;;;;;;;;;;;;;;4843067;29;101562;-86
2023/08/31 13:38:26;;;;;;;;;;;;;;;;;;4843501;29;129682;-87
2023/08/31 13:40:53;;;;;;;;;;;;;;;;;;4827617;29;97947;-86
2023/08/31 13:43:20;;;;;;;;;;;;;;;;;;4851568;29;98511;-87
2023/08/31 13:45:46;;;;;;;;;;;;;;;;;;4848727;29;124265;-86
2023/08/31 13:48:13;;;;;;;;;;;;;;;;;;4843257;29;101335;-87
2023/08/31 13:50:40;;;;;;;;;;;;;;;;;;4823220;29;130896;-88
2023/08/31 13:53:06;;;;;;;;;;;;;;;;;;4839175;29;98072;-88
2023/08/31 13:55:34;;;;;;;;;;;;;;;;;;4844520;29;121129;-87
2023/08/31 13:58:01;;;;;;;;;;;;;;;;;;4846520;29;124965;-89
2023/08/31 14:00:27;;;;;;;;;;;;;;;;;;4842988;29;114916;-89
2023/08/31 14:02:58;;;;;;;;;;;;;;;;;;4841223;29;106307;-88
2023/08/31 14:05:24;;;;;;;;;;;;;;;;;;4841414;29;130458;-88
2023/08/31 14:07:51;;;;;;;;;;;;;;;;;;4843625;29;112590;-87
2023/08/31 14:10:17;;;;;;;;;;;;;;;;;;4844139;29;97872;-87
2023/08/31 14:12:44;;;;;;;;;;;;;;;;;;4820630;29;129356;-87
2023/08/31 14:15:13;;;;;;;;;;;;;;;;;;4822489;29;97681;-89
2023/08/31 14:17:40;;;;;;;;;;;;;;;;;;4818471;29;128988;-87
2023/08/31 14:20:09;;;;;;;;;;;;;;;;;;4828046;29;98590;-87
2023/08/31 14:22:35;;;;;;;;;;;;;;;;;;4820599;29;130342;-87
2023/08/31 14:25:03;;;;;;;;;;;;;;;;;;4837313;29;101359;-86
2023/08/31 14:27:30;;;;;;;;;;;;;;;;;;4837920;29;122410;-87
2023/08/31 14:29:57;;;;;;;;;;;;;;;;;;4828496;29;119584;-86
2023/08/31 14:32:23;;;;;;;;;;;;;;;;;;4838460;29;130168;-86
2023/08/31 14:34:49;;;;;;;;;;;;;;;;;;4845257;29;113823;-87
2023/08/31 14:37:16;;;;;;;;;;;;;;;;;;4845856;29;99112;-87
2023/08/31 14:39:42;;;;;;;;;;;;;;;;;;4841203;29;111533;-86
2023/08/31 14:42:09;;;;;;;;;;;;;;;;;;4849178;29;119944;-86
2023/08/31 14:44:35;;;;;;;;;;;;;;;;;;4843860;29;98497;-86
2023/08/31 14:47:03;;;;;;;;;;;;;;;;;;4823089;29;114388;-86
2023/08/31 14:49:29;;;;;;;;;;;;;;;;;;4840877;29;99080;-86
2023/08/31 14:51:55;;;;;;;;;;;;;;;;;;4844052;29;126144;-86
2023/08/31 14:54:23;;;;;;;;;;;;;;;;;;4844079;29;97092;-87
2023/08/31 14:56:49;;;;;;;;;;;;;;;;;;4841512;29;98472;-86
2023/08/31 14:59:16;;;;;;;;;;;;;;;;;;4825613;29;100825;-86
2023/08/31 15:01:42;;;;;;;;;;;;;;;;;;4822882;29;100276;-86
2023/08/31 15:04:09;;;;;;;;;;;;;;;;;;4826320;29;111642;-88
2023/08/31 15:06:35;;;;;;;;;;;;;;;;;;4824238;29;98500;-87
2023/08/31 15:09:02;;;;;;;;;;;;;;;;;;4824026;29;115638;-87
2023/08/31 15:11:28;;;;;;;;;;;;;;;;;;4838118;29;100527;-86
2023/08/31 15:13:54;;;;;;;;;;;;;;;;;;4807487;29;103212;-86
2023/08/31 15:16:21;;;;;;;;;;;;;;;;;;4822241;29;128084;-86
2023/08/31 15:18:48;;;;;;;;;;;;;;;;;;4818695;29;118599;-86
2023/08/31 15:21:17;;;;;;;;;;;;;;;;;;4841420;29;114985;-87
2023/08/31 15:23:44;;;;;;;;;;;;;;;;;;4838023;29;98386;-86
2023/08/31 15:26:13;;;;;;;;;;;;;;;;;;4850801;29;110413;-87
2023/08/31 15:28:39;;;;;;;;;;;;;;;;;;4840566;29;128228;-86
2023/08/31 15:31:05;;;;;;;;;;;;;;;;;;4825644;29;98414;-86
2023/08/31 15:33:32;;;;;;;;;;;;;;;;;;4841873;29;116265;-86
2023/08/31 15:35:58;;;;;;;;;;;;;;;;;;4838444;29;100095;-86
2023/08/31 15:38:25;;;;;;;;;;;;;;;;;;4847040;29;98381;-86
2023/08/31 15:40:51;;;;;;;;;;;;;;;;;;4829584;29;124498;-86
2023/08/31 15:43:18;;;;;;;;;;;;;;;;;;4842437;29;100266;-85
2023/08/31 15:45:46;;;;;;;;;;;;;;;;;;4821192;29;131565;-85
2023/08/31 15:48:12;;;;;;;;;;;;;;;;;;4852122;29;110788;-86
2023/08/31 15:50:39;;;;;;;;;;;;;;;;;;4838077;29;99839;-86
2023/08/31 15:53:06;;;;;;;;;;;;;;;;;;4832819;29;118094;-85
2023/08/31 15:55:32;;;;;;;;;;;;;;;;;;4828802;29;101392;-85
2023/08/31 15:57:59;;;;;;;;;;;;;;;;;;4845535;29;98390;-85
2023/08/31 16:00:25;;;;;;;;;;;;;;;;;;4844776;29;100027;-85
2023/08/31 16:02:52;;;;;;;;;;;;;;;;;;4840149;29;126729;-85
2023/08/31 16:05:18;;;;;;;;;;;;;;;;;;4843461;29;99073;-86
2023/08/31 16:07:45;;;;;;;;;;;;;;;;;;4819577;29;123039;-85
2023/08/31 16:10:11;;;;;;;;;;;;;;;;;;4846977;29;124038;-85
2023/08/31 16:12:38;;;;;;;;;;;;;;;;;;4840365;29;108817;-85
2023/08/31 16:15:04;;;;;;;;;;;;;;;;;;4823531;29;127442;-84
2023/08/31 16:17:31;;;;;;;;;;;;;;;;;;4809067;29;122088;-85
2023/08/31 16:19:57;;;;;;;;;;;;;;;;;;4842623;29;122329;-85
2023/08/31 16:22:24;;;;;;;;;;;;;;;;;;4816273;29;126812;-84
2023/08/31 16:24:50;;;;;;;;;;;;;;;;;;4820020;29;131280;-85
2023/08/31 16:27:17;;;;;;;;;;;;;;;;;;4837923;29;98719;-84
2023/08/31 16:29:46;;;;;;;;;;;;;;;;;;4846031;29;112445;-84
2023/08/31 16:32:14;;;;;;;;;;;;;;;;;;4824412;29;97857;-83
2023/08/31 16:34:41;;;;;;;;;;;;;;;;;;4842941;29;111529;-81
2023/08/31 16:37:07;;;;;;;;;;;;;;;;;;4823174;29;127493;-81
2023/08/31 16:39:33;;;;;;;;;;;;;;;;;;4834903;29;122459;-82
2023/08/31 16:42:00;;;;;;;;;;;;;;;;;;4837026;29;129309;-82
2023/08/31 16:44:26;;;;;;;;;;;;;;;;;;4836436;29;115545;-82
2023/08/31 16:46:53;;;;;;;;;;;;;;;;;;4838696;29;98904;-81
2023/08/31 16:49:20;;;;;;;;;;;;;;;;;;4836687;29;126422;-81
2023/08/31 16:51:47;;;;;;;;;;;;;;;;;;4842630;29;110305;-81
2023/08/31 16:54:14;;;;;;;;;;;;;;;;;;4809422;29;127200;-81
2023/08/31 16:56:41;;;;;;;;;;;;;;;;;;4838190;29;107821;-82
2023/08/31 16:59:07;;;;;;;;;;;;;;;;;;4826091;29;99808;-82
2023/08/31 17:01:34;;;;;;;;;;;;;;;;;;4818748;29;99022;-82
2023/08/31 17:04:00;;;;;;;;;;;;;;;;;;4833469;29;128971;-82
2023/08/31 17:06:28;;;;;;;;;;;;;;;;;;4832921;29;104962;-82
2023/08/31 17:08:55;;;;;;;;;;;;;;;;;;4842688;29;128492;-82
2023/08/31 17:11:21;;;;;;;;;;;;;;;;;;4832568;29;99481;-83
2023/08/31 17:13:48;;;;;;;;;;;;;;;;;;4842314;29;98444;-80
2023/08/31 17:16:14;;;;;;;;;;;;;;;;;;4823165;29;99044;-80
2023/08/31 17:18:41;;;;;;;;;;;;;;;;;;4839218;29;124112;-80
2023/08/31 17:21:07;;;;;;;;;;;;;;;;;;4837795;29;128044;-80
2023/08/31 17:23:35;;;;;;;;;;;;;;;;;;4824421;29;127406;-80
2023/08/31 17:26:02;;;;;;;;;;;;;;;;;;4835551;29;103131;-80
2023/08/31 17:28:28;;;;;;;;;;;;;;;;;;4834629;29;127947;-80
2023/08/31 17:30:56;;;;;;;;;;;;;;;;;;4835147;29;98555;-80
2023/08/31 17:33:24;;;;;;;;;;;;;;;;;;4832094;29;116870;-80
2023/08/31 17:35:51;;;;;;;;;;;;;;;;;;4836786;29;128038;-80
2023/08/31 17:38:18;;;;;;;;;;;;;;;;;;4830173;29;98665;-80
2023/08/31 17:40:48;;;;;;;;;;;;;;;;;;4816865;29;127017;-80
2023/08/31 17:43:16;;;;;;;;;;;;;;;;;;4833612;29;101457;-80
2023/08/31 17:45:42;;;;;;;;;;;;;;;;;;4799401;29;118116;-80